Clearfield, Iowa
Current Conditions -  °F | °C
As of 11:55 PM on Thursday 30 Oct 2014 (Local Time) from KCSQ Reporting Station
Overcast Overcast  
Wind Chill: 36°   Ceiling: 2300
Heat Index: 45°   Visibility: 10mi
Dew Point: 37°   Wind: 22mph
Humidity: 76%   Direction: 350°N
Pressure: 30.26"   Gusts: 28mph
Location:  40.8°N, 94.48°W
Report Text: KCSQ 310455Z AUTO 35019G24KT 10SM OVC023 07/03 A3026 RMK AO2
Loading
Personal Weather Stations






























Interactive Weather Map New forecast layout! Learn more

10-Day Weather Forecast

Advertisements
Track Severe Weather on mobile